sensor_id;sensor_type;location;lat;lon;timestamp;P1;durP1;ratioP1;P2;durP2;ratioP2
4519;SDS011;2272;49.226;8.108;2022-08-21T00:00:43;4.10;;;2.93;;
4519;SDS011;2272;49.226;8.108;2022-08-21T00:03:10;7.10;;;3.47;;
4519;SDS011;2272;49.226;8.108;2022-08-21T00:05:39;6.43;;;4.00;;
4519;SDS011;2272;49.226;8.108;2022-08-21T00:08:12;7.50;;;3.53;;
4519;SDS011;2272;49.226;8.108;2022-08-21T00:10:39;5.83;;;3.17;;
4519;SDS011;2272;49.226;8.108;2022-08-21T00:13:08;5.70;;;3.30;;
4519;SDS011;2272;49.226;8.108;2022-08-21T00:15:36;9.57;;;3.40;;
4519;SDS011;2272;49.226;8.108;2022-08-21T00:18:04;13.53;;;3.67;;
4519;SDS011;2272;49.226;8.108;2022-08-21T00:20:32;4.63;;;3.40;;
4519;SDS011;2272;49.226;8.108;2022-08-21T00:23:00;7.20;;;4.43;;
4519;SDS011;2272;49.226;8.108;2022-08-21T00:25:28;8.90;;;4.23;;
4519;SDS011;2272;49.226;8.108;2022-08-21T00:27:55;9.23;;;3.07;;
4519;SDS011;2272;49.226;8.108;2022-08-21T00:30:23;7.90;;;3.20;;
4519;SDS011;2272;49.226;8.108;2022-08-21T00:32:51;4.00;;;3.60;;
4519;SDS011;2272;49.226;8.108;2022-08-21T00:35:20;8.43;;;3.70;;
4519;SDS011;2272;49.226;8.108;2022-08-21T00:37:48;4.17;;;3.40;;
4519;SDS011;2272;49.226;8.108;2022-08-21T00:40:18;4.77;;;3.37;;
4519;SDS011;2272;49.226;8.108;2022-08-21T00:42:48;5.43;;;4.10;;
4519;SDS011;2272;49.226;8.108;2022-08-21T00:45:16;5.37;;;3.63;;
4519;SDS011;2272;49.226;8.108;2022-08-21T00:47:42;8.50;;;4.47;;
4519;SDS011;2272;49.226;8.108;2022-08-21T00:50:10;6.97;;;3.60;;
4519;SDS011;2272;49.226;8.108;2022-08-21T00:52:37;3.50;;;3.17;;
4519;SDS011;2272;49.226;8.108;2022-08-21T00:55:07;4.10;;;3.47;;
4519;SDS011;2272;49.226;8.108;2022-08-21T00:57:36;8.83;;;4.07;;
4519;SDS011;2272;49.226;8.108;2022-08-21T01:00:10;9.23;;;4.30;;
4519;SDS011;2272;49.226;8.108;2022-08-21T01:02:39;4.93;;;3.50;;
4519;SDS011;2272;49.226;8.108;2022-08-21T01:05:07;9.80;;;4.00;;
4519;SDS011;2272;49.226;8.108;2022-08-21T01:07:34;5.23;;;3.37;;
4519;SDS011;2272;49.226;8.108;2022-08-21T01:10:01;3.57;;;3.20;;
4519;SDS011;2272;49.226;8.108;2022-08-21T01:12:29;6.47;;;3.17;;
4519;SDS011;2272;49.226;8.108;2022-08-21T01:14:56;7.23;;;3.60;;
4519;SDS011;2272;49.226;8.108;2022-08-21T01:17:24;6.03;;;3.60;;
4519;SDS011;2272;49.226;8.108;2022-08-21T01:19:53;4.00;;;3.37;;
4519;SDS011;2272;49.226;8.108;2022-08-21T01:22:24;4.40;;;3.60;;
4519;SDS011;2272;49.226;8.108;2022-08-21T01:24:51;9.53;;;4.20;;
4519;SDS011;2272;49.226;8.108;2022-08-21T01:27:18;4.60;;;3.43;;
4519;SDS011;2272;49.226;8.108;2022-08-21T01:29:48;5.13;;;3.67;;
4519;SDS011;2272;49.226;8.108;2022-08-21T01:32:20;19.03;;;5.50;;
4519;SDS011;2272;49.226;8.108;2022-08-21T01:34:47;9.87;;;4.23;;
4519;SDS011;2272;49.226;8.108;2022-08-21T01:37:15;7.30;;;4.10;;
4519;SDS011;2272;49.226;8.108;2022-08-21T01:39:44;14.83;;;5.17;;
4519;SDS011;2272;49.226;8.108;2022-08-21T01:42:11;7.10;;;3.63;;
4519;SDS011;2272;49.226;8.108;2022-08-21T01:44:38;9.37;;;3.80;;
4519;SDS011;2272;49.226;8.108;2022-08-21T01:47:07;8.00;;;3.70;;
4519;SDS011;2272;49.226;8.108;2022-08-21T01:49:36;5.80;;;3.80;;
4519;SDS011;2272;49.226;8.108;2022-08-21T01:52:04;7.73;;;3.70;;
4519;SDS011;2272;49.226;8.108;2022-08-21T01:54:32;4.53;;;3.30;;
4519;SDS011;2272;49.226;8.108;2022-08-21T01:57:00;4.27;;;3.80;;
4519;SDS011;2272;49.226;8.108;2022-08-21T01:59:27;8.60;;;3.87;;
4519;SDS011;2272;49.226;8.108;2022-08-21T02:01:57;6.00;;;3.80;;
4519;SDS011;2272;49.226;8.108;2022-08-21T02:04:24;4.57;;;3.20;;
4519;SDS011;2272;49.226;8.108;2022-08-21T02:06:51;8.47;;;4.20;;
4519;SDS011;2272;49.226;8.108;2022-08-21T02:09:19;5.03;;;3.10;;
4519;SDS011;2272;49.226;8.108;2022-08-21T02:11:47;7.63;;;3.43;;
4519;SDS011;2272;49.226;8.108;2022-08-21T02:14:15;10.23;;;3.70;;
4519;SDS011;2272;49.226;8.108;2022-08-21T02:16:42;13.33;;;4.57;;
4519;SDS011;2272;49.226;8.108;2022-08-21T02:19:11;13.13;;;3.70;;
4519;SDS011;2272;49.226;8.108;2022-08-21T02:21:40;14.13;;;4.90;;
4519;SDS011;2272;49.226;8.108;2022-08-21T02:24:07;7.73;;;3.60;;
4519;SDS011;2272;49.226;8.108;2022-08-21T02:26:35;13.23;;;4.53;;
4519;SDS011;2272;49.226;8.108;2022-08-21T02:29:02;12.20;;;4.20;;
4519;SDS011;2272;49.226;8.108;2022-08-21T02:31:31;11.37;;;3.90;;
4519;SDS011;2272;49.226;8.108;2022-08-21T02:33:58;8.13;;;3.40;;
4519;SDS011;2272;49.226;8.108;2022-08-21T02:36:25;4.60;;;3.43;;
4519;SDS011;2272;49.226;8.108;2022-08-21T02:38:52;4.80;;;3.00;;
4519;SDS011;2272;49.226;8.108;2022-08-21T02:41:19;9.57;;;4.17;;
4519;SDS011;2272;49.226;8.108;2022-08-21T02:43:46;8.57;;;3.70;;
4519;SDS011;2272;49.226;8.108;2022-08-21T02:46:14;12.40;;;3.40;;
4519;SDS011;2272;49.226;8.108;2022-08-21T02:48:44;8.47;;;4.60;;
4519;SDS011;2272;49.226;8.108;2022-08-21T02:51:14;12.73;;;3.53;;
4519;SDS011;2272;49.226;8.108;2022-08-21T02:53:43;11.33;;;4.43;;
4519;SDS011;2272;49.226;8.108;2022-08-21T02:56:11;4.93;;;3.40;;
4519;SDS011;2272;49.226;8.108;2022-08-21T02:58:41;5.90;;;3.93;;
4519;SDS011;2272;49.226;8.108;2022-08-21T03:01:09;7.93;;;3.20;;
4519;SDS011;2272;49.226;8.108;2022-08-21T03:03:37;5.00;;;3.90;;
4519;SDS011;2272;49.226;8.108;2022-08-21T03:06:08;12.50;;;4.87;;
4519;SDS011;2272;49.226;8.108;2022-08-21T03:08:37;9.70;;;3.77;;
4519;SDS011;2272;49.226;8.108;2022-08-21T03:11:03;4.67;;;3.30;;
4519;SDS011;2272;49.226;8.108;2022-08-21T03:13:31;6.37;;;4.03;;
4519;SDS011;2272;49.226;8.108;2022-08-21T03:15:59;9.53;;;3.60;;
4519;SDS011;2272;49.226;8.108;2022-08-21T03:18:26;4.00;;;3.17;;
4519;SDS011;2272;49.226;8.108;2022-08-21T03:20:52;3.53;;;2.80;;
4519;SDS011;2272;49.226;8.108;2022-08-21T03:23:21;6.17;;;3.70;;
4519;SDS011;2272;49.226;8.108;2022-08-21T03:25:48;7.53;;;3.70;;
4519;SDS011;2272;49.226;8.108;2022-08-21T03:28:16;13.80;;;4.30;;
4519;SDS011;2272;49.226;8.108;2022-08-21T03:30:45;10.47;;;4.30;;
4519;SDS011;2272;49.226;8.108;2022-08-21T03:33:13;4.87;;;3.37;;
4519;SDS011;2272;49.226;8.108;2022-08-21T03:35:41;6.17;;;3.60;;
4519;SDS011;2272;49.226;8.108;2022-08-21T03:38:09;8.93;;;3.13;;
4519;SDS011;2272;49.226;8.108;2022-08-21T03:40:39;3.77;;;3.00;;
4519;SDS011;2272;49.226;8.108;2022-08-21T03:43:06;7.00;;;3.80;;
4519;SDS011;2272;49.226;8.108;2022-08-21T03:45:34;3.43;;;3.07;;
4519;SDS011;2272;49.226;8.108;2022-08-21T03:48:02;12.23;;;4.87;;
4519;SDS011;2272;49.226;8.108;2022-08-21T03:50:31;10.33;;;4.10;;
4519;SDS011;2272;49.226;8.108;2022-08-21T03:53:00;6.73;;;3.73;;
4519;SDS011;2272;49.226;8.108;2022-08-21T03:55:27;5.73;;;3.80;;
4519;SDS011;2272;49.226;8.108;2022-08-21T03:57:55;5.77;;;3.67;;
4519;SDS011;2272;49.226;8.108;2022-08-21T04:00:23;4.47;;;3.80;;
4519;SDS011;2272;49.226;8.108;2022-08-21T04:02:50;5.53;;;3.70;;
4519;SDS011;2272;49.226;8.108;2022-08-21T04:05:18;19.43;;;4.37;;
4519;SDS011;2272;49.226;8.108;2022-08-21T04:07:53;10.47;;;4.37;;
4519;SDS011;2272;49.226;8.108;2022-08-21T04:10:21;9.23;;;4.27;;
4519;SDS011;2272;49.226;8.108;2022-08-21T04:12:48;5.27;;;3.60;;
4519;SDS011;2272;49.226;8.108;2022-08-21T04:15:17;8.23;;;3.57;;
4519;SDS011;2272;49.226;8.108;2022-08-21T04:17:44;5.70;;;3.77;;
4519;SDS011;2272;49.226;8.108;2022-08-21T04:20:11;8.27;;;4.70;;
4519;SDS011;2272;49.226;8.108;2022-08-21T04:22:38;5.07;;;3.90;;
4519;SDS011;2272;49.226;8.108;2022-08-21T04:25:05;9.43;;;3.80;;
4519;SDS011;2272;49.226;8.108;2022-08-21T04:27:33;8.53;;;4.07;;
4519;SDS011;2272;49.226;8.108;2022-08-21T04:30:00;3.87;;;3.50;;
4519;SDS011;2272;49.226;8.108;2022-08-21T04:32:34;4.30;;;3.90;;
4519;SDS011;2272;49.226;8.108;2022-08-21T04:35:02;5.23;;;4.37;;
4519;SDS011;2272;49.226;8.108;2022-08-21T04:37:31;11.27;;;4.57;;
4519;SDS011;2272;49.226;8.108;2022-08-21T04:39:58;9.83;;;4.73;;
4519;SDS011;2272;49.226;8.108;2022-08-21T04:42:25;8.77;;;4.80;;
4519;SDS011;2272;49.226;8.108;2022-08-21T04:44:52;17.57;;;4.73;;
4519;SDS011;2272;49.226;8.108;2022-08-21T04:47:19;7.67;;;3.33;;
4519;SDS011;2272;49.226;8.108;2022-08-21T04:49:48;18.50;;;5.27;;
4519;SDS011;2272;49.226;8.108;2022-08-21T04:52:16;13.17;;;5.43;;
4519;SDS011;2272;49.226;8.108;2022-08-21T04:54:48;12.73;;;5.50;;
4519;SDS011;2272;49.226;8.108;2022-08-21T04:57:17;8.00;;;5.10;;
4519;SDS011;2272;49.226;8.108;2022-08-21T04:59:45;12.67;;;5.63;;
4519;SDS011;2272;49.226;8.108;2022-08-21T05:02:16;10.23;;;5.90;;
4519;SDS011;2272;49.226;8.108;2022-08-21T05:04:45;6.67;;;5.67;;
4519;SDS011;2272;49.226;8.108;2022-08-21T05:07:18;9.87;;;5.20;;
4519;SDS011;2272;49.226;8.108;2022-08-21T05:09:48;10.90;;;4.80;;
4519;SDS011;2272;49.226;8.108;2022-08-21T05:12:15;5.60;;;3.73;;
4519;SDS011;2272;49.226;8.108;2022-08-21T05:14:42;9.30;;;3.77;;
4519;SDS011;2272;49.226;8.108;2022-08-21T05:17:09;4.73;;;3.67;;
4519;SDS011;2272;49.226;8.108;2022-08-21T05:19:36;4.80;;;4.33;;
4519;SDS011;2272;49.226;8.108;2022-08-21T05:22:04;6.97;;;3.80;;
4519;SDS011;2272;49.226;8.108;2022-08-21T05:24:31;5.63;;;3.90;;
4519;SDS011;2272;49.226;8.108;2022-08-21T05:26:58;3.83;;;3.40;;
4519;SDS011;2272;49.226;8.108;2022-08-21T05:29:24;5.27;;;3.23;;
4519;SDS011;2272;49.226;8.108;2022-08-21T05:31:51;5.30;;;3.80;;
4519;SDS011;2272;49.226;8.108;2022-08-21T05:34:19;9.27;;;4.33;;
4519;SDS011;2272;49.226;8.108;2022-08-21T05:36:48;3.43;;;3.20;;
4519;SDS011;2272;49.226;8.108;2022-08-21T05:39:16;4.40;;;3.30;;
4519;SDS011;2272;49.226;8.108;2022-08-21T05:41:43;6.70;;;3.60;;
4519;SDS011;2272;49.226;8.108;2022-08-21T05:44:09;7.37;;;3.83;;
4519;SDS011;2272;49.226;8.108;2022-08-21T05:46:36;4.57;;;3.40;;
4519;SDS011;2272;49.226;8.108;2022-08-21T05:49:03;5.53;;;4.33;;
4519;SDS011;2272;49.226;8.108;2022-08-21T05:51:30;5.60;;;3.90;;
4519;SDS011;2272;49.226;8.108;2022-08-21T05:53:57;8.63;;;3.87;;
4519;SDS011;2272;49.226;8.108;2022-08-21T05:56:25;9.37;;;6.10;;
4519;SDS011;2272;49.226;8.108;2022-08-21T05:58:53;3.40;;;3.10;;
4519;SDS011;2272;49.226;8.108;2022-08-21T06:01:23;8.80;;;4.30;;
4519;SDS011;2272;49.226;8.108;2022-08-21T06:03:50;6.40;;;3.20;;
4519;SDS011;2272;49.226;8.108;2022-08-21T06:06:17;8.47;;;3.80;;
4519;SDS011;2272;49.226;8.108;2022-08-21T06:08:44;4.43;;;3.10;;
4519;SDS011;2272;49.226;8.108;2022-08-21T06:11:11;6.80;;;3.00;;
4519;SDS011;2272;49.226;8.108;2022-08-21T06:13:39;6.20;;;3.57;;
4519;SDS011;2272;49.226;8.108;2022-08-21T06:16:07;3.80;;;2.43;;
4519;SDS011;2272;49.226;8.108;2022-08-21T06:18:36;11.47;;;3.70;;
4519;SDS011;2272;49.226;8.108;2022-08-21T06:21:04;5.67;;;3.50;;
4519;SDS011;2272;49.226;8.108;2022-08-21T06:23:32;3.07;;;2.87;;
4519;SDS011;2272;49.226;8.108;2022-08-21T06:25:59;5.83;;;3.67;;
4519;SDS011;2272;49.226;8.108;2022-08-21T06:28:26;4.70;;;3.00;;
4519;SDS011;2272;49.226;8.108;2022-08-21T06:30:55;6.27;;;3.43;;
4519;SDS011;2272;49.226;8.108;2022-08-21T06:33:22;5.80;;;2.50;;
4519;SDS011;2272;49.226;8.108;2022-08-21T06:35:50;5.20;;;3.47;;
4519;SDS011;2272;49.226;8.108;2022-08-21T06:38:17;4.97;;;3.00;;
4519;SDS011;2272;49.226;8.108;2022-08-21T06:40:44;3.47;;;3.13;;
4519;SDS011;2272;49.226;8.108;2022-08-21T06:43:13;11.80;;;3.10;;
4519;SDS011;2272;49.226;8.108;2022-08-21T06:45:41;13.23;;;4.30;;
4519;SDS011;2272;49.226;8.108;2022-08-21T06:48:09;7.40;;;3.80;;
4519;SDS011;2272;49.226;8.108;2022-08-21T06:50:37;6.27;;;3.30;;
4519;SDS011;2272;49.226;8.108;2022-08-21T06:53:05;10.50;;;3.27;;
4519;SDS011;2272;49.226;8.108;2022-08-21T06:55:32;6.03;;;3.97;;
4519;SDS011;2272;49.226;8.108;2022-08-21T06:57:59;2.77;;;2.60;;
4519;SDS011;2272;49.226;8.108;2022-08-21T07:00:27;5.93;;;3.60;;
4519;SDS011;2272;49.226;8.108;2022-08-21T07:02:54;7.20;;;3.70;;
4519;SDS011;2272;49.226;8.108;2022-08-21T07:05:24;6.57;;;3.30;;
4519;SDS011;2272;49.226;8.108;2022-08-21T07:07:51;6.63;;;4.27;;
4519;SDS011;2272;49.226;8.108;2022-08-21T07:10:18;6.40;;;3.37;;
4519;SDS011;2272;49.226;8.108;2022-08-21T07:12:45;37.33;;;4.30;;
4519;SDS011;2272;49.226;8.108;2022-08-21T07:15:12;5.57;;;3.70;;
4519;SDS011;2272;49.226;8.108;2022-08-21T07:17:39;4.67;;;3.43;;
4519;SDS011;2272;49.226;8.108;2022-08-21T07:20:06;4.20;;;3.00;;
4519;SDS011;2272;49.226;8.108;2022-08-21T07:22:35;6.90;;;4.03;;
4519;SDS011;2272;49.226;8.108;2022-08-21T07:25:04;12.37;;;3.67;;
4519;SDS011;2272;49.226;8.108;2022-08-21T07:27:31;3.77;;;2.77;;
4519;SDS011;2272;49.226;8.108;2022-08-21T07:29:58;7.00;;;3.10;;
4519;SDS011;2272;49.226;8.108;2022-08-21T07:32:25;10.13;;;3.43;;
4519;SDS011;2272;49.226;8.108;2022-08-21T07:34:52;3.13;;;2.90;;
4519;SDS011;2272;49.226;8.108;2022-08-21T07:37:19;5.43;;;3.40;;
4519;SDS011;2272;49.226;8.108;2022-08-21T07:39:48;5.90;;;3.10;;
4519;SDS011;2272;49.226;8.108;2022-08-21T07:42:16;8.00;;;3.57;;
4519;SDS011;2272;49.226;8.108;2022-08-21T07:44:43;8.53;;;3.90;;
4519;SDS011;2272;49.226;8.108;2022-08-21T07:47:10;9.07;;;4.10;;
4519;SDS011;2272;49.226;8.108;2022-08-21T07:49:37;5.83;;;3.60;;
4519;SDS011;2272;49.226;8.108;2022-08-21T07:52:04;11.70;;;4.77;;
4519;SDS011;2272;49.226;8.108;2022-08-21T07:54:32;9.57;;;4.30;;
4519;SDS011;2272;49.226;8.108;2022-08-21T07:57:00;5.50;;;3.60;;
4519;SDS011;2272;49.226;8.108;2022-08-21T07:59:27;4.30;;;2.67;;
4519;SDS011;2272;49.226;8.108;2022-08-21T08:01:54;9.80;;;3.40;;
4519;SDS011;2272;49.226;8.108;2022-08-21T08:04:22;7.70;;;3.50;;
4519;SDS011;2272;49.226;8.108;2022-08-21T08:06:49;6.13;;;3.43;;
4519;SDS011;2272;49.226;8.108;2022-08-21T08:09:16;7.10;;;3.20;;
4519;SDS011;2272;49.226;8.108;2022-08-21T08:11:43;7.83;;;3.40;;
4519;SDS011;2272;49.226;8.108;2022-08-21T08:14:12;7.43;;;3.27;;
4519;SDS011;2272;49.226;8.108;2022-08-21T08:16:40;5.57;;;3.60;;
4519;SDS011;2272;49.226;8.108;2022-08-21T08:19:07;6.13;;;3.10;;
4519;SDS011;2272;49.226;8.108;2022-08-21T08:21:34;15.17;;;4.30;;
4519;SDS011;2272;49.226;8.108;2022-08-21T08:24:02;5.13;;;3.57;;
4519;SDS011;2272;49.226;8.108;2022-08-21T08:26:29;7.93;;;3.67;;
4519;SDS011;2272;49.226;8.108;2022-08-21T08:28:57;7.10;;;3.80;;
4519;SDS011;2272;49.226;8.108;2022-08-21T08:31:25;4.80;;;3.10;;
4519;SDS011;2272;49.226;8.108;2022-08-21T08:33:52;3.70;;;3.40;;
4519;SDS011;2272;49.226;8.108;2022-08-21T08:36:19;11.50;;;3.57;;
4519;SDS011;2272;49.226;8.108;2022-08-21T08:38:47;4.97;;;3.63;;
4519;SDS011;2272;49.226;8.108;2022-08-21T08:41:14;6.33;;;3.33;;
4519;SDS011;2272;49.226;8.108;2022-08-21T08:43:47;5.53;;;3.30;;
4519;SDS011;2272;49.226;8.108;2022-08-21T08:46:16;11.40;;;3.43;;
4519;SDS011;2272;49.226;8.108;2022-08-21T08:48:47;8.50;;;3.90;;
4519;SDS011;2272;49.226;8.108;2022-08-21T08:51:18;7.13;;;3.03;;
4519;SDS011;2272;49.226;8.108;2022-08-21T08:53:49;9.80;;;3.30;;
4519;SDS011;2272;49.226;8.108;2022-08-21T08:56:18;10.03;;;3.70;;
4519;SDS011;2272;49.226;8.108;2022-08-21T08:58:48;7.80;;;3.20;;
4519;SDS011;2272;49.226;8.108;2022-08-21T09:01:18;8.00;;;3.00;;
4519;SDS011;2272;49.226;8.108;2022-08-21T09:03:47;7.20;;;3.10;;
4519;SDS011;2272;49.226;8.108;2022-08-21T09:06:20;2.90;;;2.30;;
4519;SDS011;2272;49.226;8.108;2022-08-21T09:08:52;4.40;;;2.77;;
4519;SDS011;2272;49.226;8.108;2022-08-21T09:11:22;8.27;;;3.30;;
4519;SDS011;2272;49.226;8.108;2022-08-21T09:13:55;7.73;;;3.53;;
4519;SDS011;2272;49.226;8.108;2022-08-21T09:16:26;6.03;;;3.17;;
4519;SDS011;2272;49.226;8.108;2022-08-21T09:18:59;9.37;;;3.17;;
4519;SDS011;2272;49.226;8.108;2022-08-21T09:21:31;11.30;;;3.60;;
4519;SDS011;2272;49.226;8.108;2022-08-21T09:24:02;8.87;;;2.90;;
4519;SDS011;2272;49.226;8.108;2022-08-21T09:26:40;7.40;;;3.27;;
4519;SDS011;2272;49.226;8.108;2022-08-21T09:29:11;6.60;;;3.30;;
4519;SDS011;2272;49.226;8.108;2022-08-21T09:31:38;11.83;;;3.70;;
4519;SDS011;2272;49.226;8.108;2022-08-21T09:34:09;10.20;;;3.07;;
4519;SDS011;2272;49.226;8.108;2022-08-21T09:36:45;6.63;;;3.20;;
4519;SDS011;2272;49.226;8.108;2022-08-21T09:39:24;3.97;;;2.77;;
4519;SDS011;2272;49.226;8.108;2022-08-21T09:41:55;4.60;;;2.73;;
4519;SDS011;2272;49.226;8.108;2022-08-21T09:44:25;4.30;;;2.50;;
4519;SDS011;2272;49.226;8.108;2022-08-21T09:46:52;9.90;;;3.47;;
4519;SDS011;2272;49.226;8.108;2022-08-21T09:49:28;3.30;;;2.43;;
4519;SDS011;2272;49.226;8.108;2022-08-21T09:51:55;9.80;;;2.70;;
4519;SDS011;2272;49.226;8.108;2022-08-21T09:54:24;7.63;;;2.80;;
4519;SDS011;2272;49.226;8.108;2022-08-21T09:56:53;8.70;;;2.60;;
4519;SDS011;2272;49.226;8.108;2022-08-21T09:59:39;4.90;;;3.30;;
4519;SDS011;2272;49.226;8.108;2022-08-21T10:02:23;5.27;;;2.93;;
4519;SDS011;2272;49.226;8.108;2022-08-21T10:04:53;7.63;;;3.40;;
4519;SDS011;2272;49.226;8.108;2022-08-21T10:07:22;10.37;;;3.50;;
4519;SDS011;2272;49.226;8.108;2022-08-21T10:09:57;6.73;;;3.27;;
4519;SDS011;2272;49.226;8.108;2022-08-21T10:12:26;7.17;;;3.47;;
4519;SDS011;2272;49.226;8.108;2022-08-21T10:14:58;4.87;;;3.10;;
4519;SDS011;2272;49.226;8.108;2022-08-21T10:17:30;3.63;;;2.63;;
4519;SDS011;2272;49.226;8.108;2022-08-21T10:20:02;6.10;;;3.10;;
4519;SDS011;2272;49.226;8.108;2022-08-21T10:22:34;5.40;;;2.90;;
4519;SDS011;2272;49.226;8.108;2022-08-21T10:25:07;7.63;;;3.20;;
4519;SDS011;2272;49.226;8.108;2022-08-21T10:27:37;4.13;;;2.63;;
4519;SDS011;2272;49.226;8.108;2022-08-21T10:30:08;4.03;;;3.00;;
4519;SDS011;2272;49.226;8.108;2022-08-21T10:32:39;5.90;;;3.20;;
4519;SDS011;2272;49.226;8.108;2022-08-21T10:35:12;4.30;;;2.87;;
4519;SDS011;2272;49.226;8.108;2022-08-21T10:37:46;8.47;;;3.40;;
4519;SDS011;2272;49.226;8.108;2022-08-21T10:40:18;3.33;;;2.27;;
4519;SDS011;2272;49.226;8.108;2022-08-21T10:42:49;10.77;;;3.40;;
4519;SDS011;2272;49.226;8.108;2022-08-21T10:45:22;6.63;;;3.00;;
4519;SDS011;2272;49.226;8.108;2022-08-21T10:47:53;4.23;;;2.90;;
4519;SDS011;2272;49.226;8.108;2022-08-21T10:50:28;8.20;;;3.40;;
4519;SDS011;2272;49.226;8.108;2022-08-21T10:53:03;3.23;;;2.93;;
4519;SDS011;2272;49.226;8.108;2022-08-21T10:55:33;3.23;;;3.03;;
4519;SDS011;2272;49.226;8.108;2022-08-21T10:58:04;12.90;;;4.20;;
4519;SDS011;2272;49.226;8.108;2022-08-21T11:00:33;6.90;;;2.93;;
4519;SDS011;2272;49.226;8.108;2022-08-21T11:03:03;7.43;;;2.80;;
4519;SDS011;2272;49.226;8.108;2022-08-21T11:05:33;8.03;;;3.30;;
4519;SDS011;2272;49.226;8.108;2022-08-21T11:08:02;7.00;;;2.80;;
4519;SDS011;2272;49.226;8.108;2022-08-21T11:10:31;4.60;;;2.73;;
4519;SDS011;2272;49.226;8.108;2022-08-21T11:13:00;2.70;;;2.50;;
4519;SDS011;2272;49.226;8.108;2022-08-21T11:15:33;5.13;;;2.93;;
4519;SDS011;2272;49.226;8.108;2022-08-21T11:18:07;8.63;;;3.03;;
4519;SDS011;2272;49.226;8.108;2022-08-21T11:20:40;6.40;;;3.30;;
4519;SDS011;2272;49.226;8.108;2022-08-21T11:23:11;6.03;;;2.80;;
4519;SDS011;2272;49.226;8.108;2022-08-21T11:25:41;8.43;;;3.03;;
4519;SDS011;2272;49.226;8.108;2022-08-21T11:28:13;6.27;;;3.17;;
4519;SDS011;2272;49.226;8.108;2022-08-21T11:30:45;14.40;;;3.93;;
4519;SDS011;2272;49.226;8.108;2022-08-21T11:33:20;3.70;;;3.10;;
4519;SDS011;2272;49.226;8.108;2022-08-21T11:35:53;10.93;;;3.13;;
4519;SDS011;2272;49.226;8.108;2022-08-21T11:38:35;9.20;;;3.37;;
4519;SDS011;2272;49.226;8.108;2022-08-21T11:41:06;5.77;;;3.43;;
4519;SDS011;2272;49.226;8.108;2022-08-21T11:43:38;4.20;;;3.50;;
4519;SDS011;2272;49.226;8.108;2022-08-21T11:46:11;5.47;;;3.37;;
4519;SDS011;2272;49.226;8.108;2022-08-21T11:48:41;12.50;;;3.70;;
4519;SDS011;2272;49.226;8.108;2022-08-21T11:51:12;16.90;;;3.03;;
4519;SDS011;2272;49.226;8.108;2022-08-21T11:53:42;8.40;;;3.40;;
4519;SDS011;2272;49.226;8.108;2022-08-21T11:56:17;7.20;;;3.50;;
4519;SDS011;2272;49.226;8.108;2022-08-21T11:58:48;6.70;;;3.03;;
4519;SDS011;2272;49.226;8.108;2022-08-21T12:01:17;5.03;;;2.57;;
4519;SDS011;2272;49.226;8.108;2022-08-21T12:03:51;4.97;;;2.53;;
4519;SDS011;2272;49.226;8.108;2022-08-21T12:06:29;6.87;;;3.37;;
4519;SDS011;2272;49.226;8.108;2022-08-21T12:08:57;10.10;;;3.87;;
4519;SDS011;2272;49.226;8.108;2022-08-21T12:11:24;5.93;;;3.10;;
4519;SDS011;2272;49.226;8.108;2022-08-21T12:13:53;3.77;;;2.80;;
4519;SDS011;2272;49.226;8.108;2022-08-21T12:16:28;9.00;;;3.90;;
4519;SDS011;2272;49.226;8.108;2022-08-21T12:19:02;4.67;;;2.80;;
4519;SDS011;2272;49.226;8.108;2022-08-21T12:21:46;5.73;;;2.90;;
4519;SDS011;2272;49.226;8.108;2022-08-21T12:24:17;4.77;;;2.87;;
4519;SDS011;2272;49.226;8.108;2022-08-21T12:26:50;3.87;;;2.63;;
4519;SDS011;2272;49.226;8.108;2022-08-21T12:29:21;8.07;;;3.20;;
4519;SDS011;2272;49.226;8.108;2022-08-21T12:31:56;4.30;;;3.00;;
4519;SDS011;2272;49.226;8.108;2022-08-21T12:34:25;3.10;;;2.60;;
4519;SDS011;2272;49.226;8.108;2022-08-21T12:36:58;5.10;;;2.60;;
4519;SDS011;2272;49.226;8.108;2022-08-21T12:39:27;4.53;;;3.07;;
4519;SDS011;2272;49.226;8.108;2022-08-21T12:41:57;3.80;;;2.50;;
4519;SDS011;2272;49.226;8.108;2022-08-21T12:44:27;7.83;;;2.57;;
4519;SDS011;2272;49.226;8.108;2022-08-21T12:46:56;2.90;;;2.37;;
4519;SDS011;2272;49.226;8.108;2022-08-21T12:49:25;4.13;;;2.60;;
4519;SDS011;2272;49.226;8.108;2022-08-21T12:51:54;9.57;;;2.53;;
4519;SDS011;2272;49.226;8.108;2022-08-21T12:54:24;14.07;;;2.93;;
4519;SDS011;2272;49.226;8.108;2022-08-21T12:56:56;5.60;;;2.60;;
4519;SDS011;2272;49.226;8.108;2022-08-21T12:59:23;7.23;;;2.80;;
4519;SDS011;2272;49.226;8.108;2022-08-21T13:01:51;2.47;;;2.27;;
4519;SDS011;2272;49.226;8.108;2022-08-21T13:04:21;4.20;;;2.57;;
4519;SDS011;2272;49.226;8.108;2022-08-21T13:06:50;4.53;;;2.23;;
4519;SDS011;2272;49.226;8.108;2022-08-21T13:09:19;3.47;;;2.50;;
4519;SDS011;2272;49.226;8.108;2022-08-21T13:11:48;5.03;;;2.57;;
4519;SDS011;2272;49.226;8.108;2022-08-21T13:14:23;3.00;;;2.67;;
4519;SDS011;2272;49.226;8.108;2022-08-21T13:16:52;3.67;;;2.57;;
4519;SDS011;2272;49.226;8.108;2022-08-21T13:19:20;4.20;;;2.90;;
4519;SDS011;2272;49.226;8.108;2022-08-21T13:21:48;3.57;;;2.50;;
4519;SDS011;2272;49.226;8.108;2022-08-21T13:24:18;2.93;;;2.60;;
4519;SDS011;2272;49.226;8.108;2022-08-21T13:26:47;4.03;;;2.30;;
4519;SDS011;2272;49.226;8.108;2022-08-21T13:29:15;2.53;;;2.30;;
4519;SDS011;2272;49.226;8.108;2022-08-21T13:31:46;3.17;;;2.40;;
4519;SDS011;2272;49.226;8.108;2022-08-21T13:34:14;4.87;;;2.87;;
4519;SDS011;2272;49.226;8.108;2022-08-21T13:36:42;2.93;;;2.67;;
4519;SDS011;2272;49.226;8.108;2022-08-21T13:39:12;6.73;;;3.30;;
4519;SDS011;2272;49.226;8.108;2022-08-21T13:41:41;6.83;;;2.60;;
4519;SDS011;2272;49.226;8.108;2022-08-21T13:44:15;3.37;;;3.07;;
4519;SDS011;2272;49.226;8.108;2022-08-21T13:46:43;4.03;;;2.40;;
4519;SDS011;2272;49.226;8.108;2022-08-21T13:49:12;3.23;;;2.10;;
4519;SDS011;2272;49.226;8.108;2022-08-21T13:51:40;2.97;;;2.47;;
4519;SDS011;2272;49.226;8.108;2022-08-21T13:54:14;4.43;;;2.47;;
4519;SDS011;2272;49.226;8.108;2022-08-21T13:56:42;2.47;;;2.30;;
4519;SDS011;2272;49.226;8.108;2022-08-21T13:59:10;4.97;;;2.80;;
4519;SDS011;2272;49.226;8.108;2022-08-21T14:01:39;7.83;;;2.77;;
4519;SDS011;2272;49.226;8.108;2022-08-21T14:04:16;2.70;;;2.50;;
4519;SDS011;2272;49.226;8.108;2022-08-21T14:06:45;8.13;;;2.83;;
4519;SDS011;2272;49.226;8.108;2022-08-21T14:09:14;3.83;;;2.47;;
4519;SDS011;2272;49.226;8.108;2022-08-21T14:11:48;4.73;;;2.57;;
4519;SDS011;2272;49.226;8.108;2022-08-21T14:14:17;3.27;;;2.53;;
4519;SDS011;2272;49.226;8.108;2022-08-21T14:16:52;6.50;;;2.77;;
4519;SDS011;2272;49.226;8.108;2022-08-21T14:19:21;2.67;;;2.37;;
4519;SDS011;2272;49.226;8.108;2022-08-21T14:21:48;4.30;;;2.90;;
4519;SDS011;2272;49.226;8.108;2022-08-21T14:24:24;3.53;;;2.30;;
4519;SDS011;2272;49.226;8.108;2022-08-21T14:26:53;4.27;;;3.20;;
4519;SDS011;2272;49.226;8.108;2022-08-21T14:29:21;7.67;;;2.70;;
4519;SDS011;2272;49.226;8.108;2022-08-21T14:31:51;3.90;;;2.67;;
4519;SDS011;2272;49.226;8.108;2022-08-21T14:34:20;2.97;;;2.23;;
4519;SDS011;2272;49.226;8.108;2022-08-21T14:36:47;4.97;;;2.57;;
4519;SDS011;2272;49.226;8.108;2022-08-21T14:39:15;7.23;;;3.00;;
4519;SDS011;2272;49.226;8.108;2022-08-21T14:41:43;11.10;;;2.40;;
4519;SDS011;2272;49.226;8.108;2022-08-21T14:44:13;4.73;;;2.70;;
4519;SDS011;2272;49.226;8.108;2022-08-21T14:46:40;2.60;;;2.40;;
4519;SDS011;2272;49.226;8.108;2022-08-21T14:49:10;3.80;;;2.20;;
4519;SDS011;2272;49.226;8.108;2022-08-21T14:51:38;3.57;;;2.40;;
4519;SDS011;2272;49.226;8.108;2022-08-21T14:54:05;2.70;;;2.50;;
4519;SDS011;2272;49.226;8.108;2022-08-21T14:56:32;4.73;;;2.17;;
4519;SDS011;2272;49.226;8.108;2022-08-21T14:59:00;3.50;;;2.50;;
4519;SDS011;2272;49.226;8.108;2022-08-21T15:01:29;3.20;;;2.73;;
4519;SDS011;2272;49.226;8.108;2022-08-21T15:03:56;3.10;;;2.53;;
4519;SDS011;2272;49.226;8.108;2022-08-21T15:06:24;2.07;;;1.97;;
4519;SDS011;2272;49.226;8.108;2022-08-21T15:08:51;4.10;;;2.63;;
4519;SDS011;2272;49.226;8.108;2022-08-21T15:11:19;3.87;;;2.30;;
4519;SDS011;2272;49.226;8.108;2022-08-21T15:13:47;3.30;;;2.20;;
4519;SDS011;2272;49.226;8.108;2022-08-21T15:16:16;2.30;;;2.20;;
4519;SDS011;2272;49.226;8.108;2022-08-21T15:18:43;3.13;;;2.90;;
4519;SDS011;2272;49.226;8.108;2022-08-21T15:21:10;6.60;;;2.70;;
4519;SDS011;2272;49.226;8.108;2022-08-21T15:23:38;8.67;;;2.80;;